Aérodrome :
LOGIN :

S'inscrire | Disclaimer

   EN    FR    IT 

 










Légende :    VFR   VFR Marginal   IFR   IFR Intensif   IFR Très Intensif
Visi : 
Plafond : 
>= 8 km
>= 3000ft
5 à 8 km
1000 à 3000 ft
1500m à 5 km
500 à 1000 ft
800 à 1500m
200 à 500 ft
< 800m
< 200 ft
Symboles :   Orages  Brouillard  Fortes neiges  Fortes précipitations  Vent > 20 kt
SIGMETs :   Divers  Orages  Givrage  Turbulence  Onde Orograph.  Cendres Volcan.






- Altitude de l'aérodrome : 1411 ft
- Code IATA : SZG


LOWS - Salzburg

DERNIER METAR :
  • 090720Z AUTO VRB03KT 9999 FEW045 19/13 Q1025 NOSIG

METARs EXPIRÉS :
  • 090650Z AUTO 14004KT 100V180 9999 FEW045 18/13 Q1025 NOSIG
  • 090620Z AUTO 10003KT 050V170 CAVOK 17/13 Q1025 NOSIG
  • 090550Z AUTO 18003KT 150V210 CAVOK 14/12 Q1025 NOSIG
  • 090520Z AUTO 13003KT 100V170 CAVOK 14/12 Q1025 NOSIG
  • 090450Z AUTO VRB01KT CAVOK 12/11 Q1025 NOSIG

TAF TAF LOWS
Valide du 09 à 06h jusqu'au 10 à 06h UTC


090515Z 0906/1006 15005KT CAVOK TX25/0914Z TN11/1004Z
BECMG 0908/0910 03007KT
BECMG 0918/0920 15005KT



MET'MAP, la Météo Aéronautique d'un coup d'oeil ! - Copyright ORBIFLY Décembre 2007 - Disclaimer

ORBIFLY MET'MAP TEAM :

Programmation & Développement : Alexandra Zaïnal
Sur une idée originale de : Baudouin d'Aumeries
Soutien technique & logistique : Manuel Goepfert
Assistance : Marc-Olivier Méhu




SOURCES & CREDITS :

   NOAA